Tuesday, June 19, 2018, 6:54 AM EDT
Back to Local

KTAN, Taunton Municipal Airport

Location: East Taunton, MA, United States Lat: 41.883
Local Time: 6:54 AM EDT (10:54 GMT) Lon: -71.017
Time Zone: US/Eastern Elev: 42 ft

Show me the last for .
Show Decoded

2018-06-19 06:41 METAR KTAN 191041Z AUTO 00000KT 7SM SCT015 BKN046 OVC055 22/20 A2968 RMK AO2
                 T02170200 =
2018-06-19 06:20 METAR KTAN 191020Z AUTO VRB03KT 6SM BR SCT017 BKN024 OVC044 21/20 A2968 RMK AO2
                 T02110200 =
2018-06-19 05:52 METAR KTAN 190952Z AUTO 00000KT 7SM CLR 21/19 A2966 RMK AO2 SLP041 T02110194 =
2018-06-19 04:52 METAR KTAN 190852Z AUTO 25003KT 10SM FEW090 FEW120 21/19 A2965 RMK AO2 RAB28E41
                 SLP038 P0000 60000 T02060189 55005 =
2018-06-19 03:52 METAR KTAN 190752Z AUTO 22004KT 10SM OVC110 21/19 A2964 RMK AO2 SLP037 T02060189
                 =
2018-06-19 02:52 METAR KTAN 190652Z AUTO 22007KT 10SM OVC100 21/19 A2964 RMK AO2 RAE08 SLP037
                 P0000 T02060189 =
2018-06-19 01:52 METAR KTAN 190552Z AUTO 24005KT 9SM -RA FEW070 OVC100 21/19 A2966 RMK AO2 RAB16
                 SLP043 P0002 60016 T02110194 10233 20200 56028 =
2018-06-19 00:52 METAR KTAN 190452Z AUTO 23005KT 10SM CLR 21/18 A2968 RMK AO2 SLP050 T02060183
                 402830167 =
2018-06-18 23:52 METAR KTAN 190352Z AUTO 22007KT 10SM BKN110 21/18 A2971 RMK AO2 RAB07E16 SLP060
                 P0000 T02060178 =
2018-06-18 22:52 METAR KTAN 190252Z AUTO 21006KT 10SM FEW050 SCT085 BKN120 20/18 A2974 RMK AO2
                 RAE45 SLP071 P0011 60014 T02000183 58014 =
2018-06-18 22:18 METAR KTAN 190218Z AUTO 20007KT 5SM RA BR FEW042 SCT070 BKN080 20/18 A2978 RMK
                 AO2 LTG DSNT SW P0009 T02000178 =
2018-06-18 22:04 METAR KTAN 190204Z AUTO VRB04KT 3SM VCTS +RA BR SCT041 SCT080 BKN110 20/18 A2980
                 RMK AO2 LTG DSNT SW AND W P0006 T02000178 =
2018-06-18 21:52 METAR KTAN 190152Z AUTO 23008KT 6SM RA FEW065 FEW080 BKN110 21/17 A2978 RMK AO2
                 RAB13 SLP083 P0003 T02060172 =
2018-06-18 20:52 METAR KTAN 190052Z AUTO VRB06KT 10SM FEW065 FEW090 SCT110 23/16 A2977 RMK AO2
                 RAB33E47 SLP080 P0000 T02280156 =
2018-06-18 19:52 METAR KTAN 182352Z AUTO 21007G15KT 180V250 10SM CLR 23/15 A2978 RMK AO2 SLP085
                 T02330150 10283 20233 55008 =
2018-06-18 18:52 METAR KTAN 182252Z AUTO 20009G19KT 10SM CLR 24/16 A2978 RMK AO2 PK WND
                 19027/2205 SLP083 T02440161 =
2018-06-18 17:52 METAR KTAN 182152Z AUTO 21014G20KT 10SM CLR 26/16 A2978 RMK AO2 PK WND
                 23027/2053 SLP084 T02610161 =
2018-06-18 16:52 METAR KTAN 182052Z AUTO 20014G25KT 10SM CLR 27/17 A2981 RMK AO2 PK WND
                 21026/2000 SLP093 T02720167 58025 =
2018-06-18 15:52 METAR KTAN 181952Z AUTO 21015G28KT 10SM CLR 27/17 A2984 RMK AO2 PK WND
                 21028/1935 SLP104 T02670172 =
2018-06-18 14:52 METAR KTAN 181852Z AUTO 22013G25KT 10SM CLR 27/18 A2985 RMK AO2 SLP109 T02720178
                 =
2018-06-18 13:52 METAR KTAN 181752Z AUTO 20014G20KT 10SM CLR 27/18 A2988 RMK AO2 SLP118 T02720183
                 10278 20222 58022 =
2018-06-18 12:52 METAR KTAN 181652Z AUTO 22013G22KT 10SM CLR 27/18 A2991 RMK AO2 SLP129 T02670183
                 =
2018-06-18 11:52 METAR KTAN 181552Z AUTO 21009G22KT 10SM CLR 28/18 A2993 RMK AO2 SLP134 T02780183
                 =
2018-06-18 10:52 METAR KTAN 181452Z AUTO 21011G19KT 10SM CLR 26/18 A2995 RMK AO2 SLP140 T02610183
                 58012 =
2018-06-18 09:52 METAR KTAN 181352Z AUTO 23010KT 190V260 10SM CLR 26/18 A2996 RMK AO2 SLP146
                 T02560178 =
2018-06-18 08:52 METAR KTAN 181252Z AUTO 22009G15KT 10SM CLR 24/17 A2998 RMK AO2 SLP150 T02440172
                 =
2018-06-18 07:52 METAR KTAN 181152Z AUTO 10SM CLR 22/18 A2998 RMK AO2 SLP152 T02220178 10222
                 20172 58015 $ =

Support USWX by starting your Amazon purchase here.